sensor_id;sensor_type;location;lat;lon;timestamp;P1;durP1;ratioP1;P2;durP2;ratioP2
68273;SDS011;55104;47.356;19.448;2022-09-01T00:00:05;2.58;;;0.60;;
68273;SDS011;55104;47.356;19.448;2022-09-01T00:03:11;3.47;;;0.95;;
68273;SDS011;55104;47.356;19.448;2022-09-01T00:06:14;3.13;;;0.80;;
68273;SDS011;55104;47.356;19.448;2022-09-01T00:09:22;4.25;;;0.80;;
68273;SDS011;55104;47.356;19.448;2022-09-01T00:12:25;5.65;;;0.90;;
68273;SDS011;55104;47.356;19.448;2022-09-01T00:15:27;3.35;;;0.70;;
68273;SDS011;55104;47.356;19.448;2022-09-01T00:18:29;3.00;;;0.90;;
68273;SDS011;55104;47.356;19.448;2022-09-01T00:21:35;5.07;;;0.90;;
68273;SDS011;55104;47.356;19.448;2022-09-01T00:24:39;3.53;;;0.82;;
68273;SDS011;55104;47.356;19.448;2022-09-01T00:27:41;4.03;;;1.10;;
68273;SDS011;55104;47.356;19.448;2022-09-01T00:30:44;3.55;;;1.00;;
68273;SDS011;55104;47.356;19.448;2022-09-01T00:33:47;4.50;;;1.17;;
68273;SDS011;55104;47.356;19.448;2022-09-01T00:36:50;4.87;;;1.17;;
68273;SDS011;55104;47.356;19.448;2022-09-01T00:39:52;7.18;;;1.20;;
68273;SDS011;55104;47.356;19.448;2022-09-01T00:42:54;4.85;;;1.25;;
68273;SDS011;55104;47.356;19.448;2022-09-01T00:45:56;3.90;;;1.10;;
68273;SDS011;55104;47.356;19.448;2022-09-01T00:49:07;5.25;;;1.10;;
68273;SDS011;55104;47.356;19.448;2022-09-01T00:52:16;4.40;;;1.33;;
68273;SDS011;55104;47.356;19.448;2022-09-01T00:55:27;3.83;;;1.08;;
68273;SDS011;55104;47.356;19.448;2022-09-01T00:58:33;6.68;;;1.30;;
68273;SDS011;55104;47.356;19.448;2022-09-01T01:01:38;5.18;;;1.25;;
68273;SDS011;55104;47.356;19.448;2022-09-01T01:04:40;4.45;;;1.35;;
68273;SDS011;55104;47.356;19.448;2022-09-01T01:07:44;6.47;;;1.50;;
68273;SDS011;55104;47.356;19.448;2022-09-01T01:10:48;2.80;;;0.85;;
68273;SDS011;55104;47.356;19.448;2022-09-01T01:13:51;5.78;;;1.48;;
68273;SDS011;55104;47.356;19.448;2022-09-01T01:16:55;4.03;;;1.05;;
68273;SDS011;55104;47.356;19.448;2022-09-01T01:19:57;5.35;;;1.30;;
68273;SDS011;55104;47.356;19.448;2022-09-01T01:26:49;4.40;;;1.30;;
68273;SDS011;55104;47.356;19.448;2022-09-01T01:29:52;7.13;;;1.40;;
68273;SDS011;55104;47.356;19.448;2022-09-01T01:32:56;4.07;;;0.88;;
68273;SDS011;55104;47.356;19.448;2022-09-01T01:35:59;4.55;;;1.50;;
68273;SDS011;55104;47.356;19.448;2022-09-01T01:39:08;4.20;;;1.47;;
68273;SDS011;55104;47.356;19.448;2022-09-01T01:42:15;5.00;;;1.20;;
68273;SDS011;55104;47.356;19.448;2022-09-01T01:45:18;6.90;;;1.40;;
68273;SDS011;55104;47.356;19.448;2022-09-01T01:48:23;4.82;;;1.20;;
68273;SDS011;55104;47.356;19.448;2022-09-01T01:51:26;6.13;;;1.13;;
68273;SDS011;55104;47.356;19.448;2022-09-01T01:54:29;3.67;;;1.00;;
68273;SDS011;55104;47.356;19.448;2022-09-01T01:57:33;5.97;;;1.13;;
68273;SDS011;55104;47.356;19.448;2022-09-01T02:00:36;3.85;;;1.00;;
68273;SDS011;55104;47.356;19.448;2022-09-01T02:03:39;3.85;;;1.20;;
68273;SDS011;55104;47.356;19.448;2022-09-01T02:06:42;8.55;;;1.67;;
68273;SDS011;55104;47.356;19.448;2022-09-01T02:09:46;5.73;;;1.40;;
68273;SDS011;55104;47.356;19.448;2022-09-01T02:12:49;5.55;;;1.50;;
68273;SDS011;55104;47.356;19.448;2022-09-01T02:15:53;6.35;;;1.90;;
68273;SDS011;55104;47.356;19.448;2022-09-01T02:18:56;6.22;;;1.40;;
68273;SDS011;55104;47.356;19.448;2022-09-01T02:21:58;9.10;;;1.33;;
68273;SDS011;55104;47.356;19.448;2022-09-01T02:25:00;5.30;;;1.50;;
68273;SDS011;55104;47.356;19.448;2022-09-01T02:28:03;6.18;;;1.48;;
68273;SDS011;55104;47.356;19.448;2022-09-01T02:31:10;4.18;;;1.40;;
68273;SDS011;55104;47.356;19.448;2022-09-01T02:34:13;5.85;;;1.42;;
68273;SDS011;55104;47.356;19.448;2022-09-01T02:37:16;4.68;;;1.40;;
68273;SDS011;55104;47.356;19.448;2022-09-01T02:40:18;6.90;;;1.53;;
68273;SDS011;55104;47.356;19.448;2022-09-01T02:43:20;5.47;;;1.48;;
68273;SDS011;55104;47.356;19.448;2022-09-01T02:46:23;5.82;;;1.85;;
68273;SDS011;55104;47.356;19.448;2022-09-01T02:49:26;5.45;;;1.45;;
68273;SDS011;55104;47.356;19.448;2022-09-01T02:52:31;5.22;;;1.33;;
68273;SDS011;55104;47.356;19.448;2022-09-01T02:55:37;4.80;;;1.43;;
68273;SDS011;55104;47.356;19.448;2022-09-01T02:58:41;4.82;;;1.30;;
68273;SDS011;55104;47.356;19.448;2022-09-01T03:01:48;4.80;;;1.20;;
68273;SDS011;55104;47.356;19.448;2022-09-01T03:04:52;3.70;;;1.00;;
68273;SDS011;55104;47.356;19.448;2022-09-01T03:07:56;6.15;;;1.40;;
68273;SDS011;55104;47.356;19.448;2022-09-01T03:11:01;4.80;;;1.10;;
68273;SDS011;55104;47.356;19.448;2022-09-01T03:14:04;3.78;;;1.13;;
68273;SDS011;55104;47.356;19.448;2022-09-01T03:17:07;5.28;;;1.85;;
68273;SDS011;55104;47.356;19.448;2022-09-01T03:20:10;3.65;;;1.00;;
68273;SDS011;55104;47.356;19.448;2022-09-01T03:23:13;4.50;;;1.17;;
68273;SDS011;55104;47.356;19.448;2022-09-01T03:26:20;3.83;;;1.00;;
68273;SDS011;55104;47.356;19.448;2022-09-01T03:29:23;7.68;;;1.23;;
68273;SDS011;55104;47.356;19.448;2022-09-01T03:32:25;5.40;;;1.30;;
68273;SDS011;55104;47.356;19.448;2022-09-01T03:35:27;3.70;;;1.10;;
68273;SDS011;55104;47.356;19.448;2022-09-01T03:38:33;3.88;;;1.25;;
68273;SDS011;55104;47.356;19.448;2022-09-01T03:41:37;3.60;;;1.20;;
68273;SDS011;55104;47.356;19.448;2022-09-01T03:44:39;4.25;;;1.20;;
68273;SDS011;55104;47.356;19.448;2022-09-01T03:47:42;5.97;;;1.40;;
68273;SDS011;55104;47.356;19.448;2022-09-01T03:50:44;6.05;;;1.25;;
68273;SDS011;55104;47.356;19.448;2022-09-01T03:53:48;4.43;;;1.33;;
68273;SDS011;55104;47.356;19.448;2022-09-01T03:56:51;7.73;;;1.70;;
68273;SDS011;55104;47.356;19.448;2022-09-01T03:59:56;4.35;;;1.30;;
68273;SDS011;55104;47.356;19.448;2022-09-01T04:02:59;6.13;;;1.35;;
68273;SDS011;55104;47.356;19.448;2022-09-01T04:06:01;8.68;;;1.48;;
68273;SDS011;55104;47.356;19.448;2022-09-01T04:09:05;4.80;;;1.60;;
68273;SDS011;55104;47.356;19.448;2022-09-01T04:12:08;5.07;;;1.47;;
68273;SDS011;55104;47.356;19.448;2022-09-01T04:15:18;4.47;;;1.40;;
68273;SDS011;55104;47.356;19.448;2022-09-01T04:18:20;4.10;;;1.30;;
68273;SDS011;55104;47.356;19.448;2022-09-01T04:21:23;6.82;;;1.42;;
68273;SDS011;55104;47.356;19.448;2022-09-01T04:24:26;4.43;;;1.33;;
68273;SDS011;55104;47.356;19.448;2022-09-01T04:27:30;5.80;;;1.87;;
68273;SDS011;55104;47.356;19.448;2022-09-01T04:30:32;6.40;;;1.45;;
68273;SDS011;55104;47.356;19.448;2022-09-01T04:33:35;5.05;;;1.40;;
68273;SDS011;55104;47.356;19.448;2022-09-01T04:36:41;4.85;;;1.60;;
68273;SDS011;55104;47.356;19.448;2022-09-01T04:39:47;5.43;;;1.40;;
68273;SDS011;55104;47.356;19.448;2022-09-01T04:42:57;4.63;;;1.40;;
68273;SDS011;55104;47.356;19.448;2022-09-01T04:45:59;4.32;;;1.20;;
68273;SDS011;55104;47.356;19.448;2022-09-01T04:49:04;4.38;;;1.50;;
68273;SDS011;55104;47.356;19.448;2022-09-01T04:52:14;6.32;;;1.50;;
68273;SDS011;55104;47.356;19.448;2022-09-01T04:55:16;5.35;;;1.60;;
68273;SDS011;55104;47.356;19.448;2022-09-01T04:58:19;4.10;;;1.20;;
68273;SDS011;55104;47.356;19.448;2022-09-01T05:01:24;5.10;;;1.48;;
68273;SDS011;55104;47.356;19.448;2022-09-01T05:04:28;6.55;;;1.60;;
68273;SDS011;55104;47.356;19.448;2022-09-01T05:07:35;9.02;;;1.73;;
68273;SDS011;55104;47.356;19.448;2022-09-01T05:10:43;5.53;;;1.60;;
68273;SDS011;55104;47.356;19.448;2022-09-01T05:13:51;4.83;;;1.50;;
68273;SDS011;55104;47.356;19.448;2022-09-01T05:16:58;5.97;;;1.40;;
68273;SDS011;55104;47.356;19.448;2022-09-01T05:20:02;6.05;;;1.60;;
68273;SDS011;55104;47.356;19.448;2022-09-01T05:23:04;5.57;;;1.35;;
68273;SDS011;55104;47.356;19.448;2022-09-01T05:26:13;3.13;;;1.00;;
68273;SDS011;55104;47.356;19.448;2022-09-01T05:29:19;3.67;;;1.23;;
68273;SDS011;55104;47.356;19.448;2022-09-01T05:32:22;4.85;;;1.40;;
68273;SDS011;55104;47.356;19.448;2022-09-01T05:35:27;4.97;;;1.50;;
68273;SDS011;55104;47.356;19.448;2022-09-01T05:38:34;6.22;;;1.30;;
68273;SDS011;55104;47.356;19.448;2022-09-01T05:41:36;5.28;;;1.20;;
68273;SDS011;55104;47.356;19.448;2022-09-01T05:44:42;4.77;;;1.40;;
68273;SDS011;55104;47.356;19.448;2022-09-01T05:47:46;5.18;;;1.60;;
68273;SDS011;55104;47.356;19.448;2022-09-01T05:50:50;5.78;;;1.45;;
68273;SDS011;55104;47.356;19.448;2022-09-01T05:53:56;6.15;;;1.40;;
68273;SDS011;55104;47.356;19.448;2022-09-01T05:57:01;6.50;;;1.38;;
68273;SDS011;55104;47.356;19.448;2022-09-01T06:00:24;3.63;;;1.17;;
68273;SDS011;55104;47.356;19.448;2022-09-01T06:03:35;4.30;;;1.17;;
68273;SDS011;55104;47.356;19.448;2022-09-01T06:06:43;4.22;;;1.27;;
68273;SDS011;55104;47.356;19.448;2022-09-01T06:10:08;4.97;;;1.42;;
68273;SDS011;55104;47.356;19.448;2022-09-01T06:13:11;7.75;;;1.85;;
68273;SDS011;55104;47.356;19.448;2022-09-01T06:16:17;3.87;;;1.27;;
68273;SDS011;55104;47.356;19.448;2022-09-01T06:19:20;4.55;;;1.20;;
68273;SDS011;55104;47.356;19.448;2022-09-01T06:22:24;5.78;;;1.60;;
68273;SDS011;55104;47.356;19.448;2022-09-01T06:25:27;4.70;;;1.60;;
68273;SDS011;55104;47.356;19.448;2022-09-01T06:28:32;23.98;;;7.00;;
68273;SDS011;55104;47.356;19.448;2022-09-01T06:31:35;27.00;;;9.87;;
68273;SDS011;55104;47.356;19.448;2022-09-01T06:34:42;10.15;;;3.65;;
68273;SDS011;55104;47.356;19.448;2022-09-01T06:37:51;7.70;;;2.47;;
68273;SDS011;55104;47.356;19.448;2022-09-01T06:41:22;5.43;;;1.70;;
68273;SDS011;55104;47.356;19.448;2022-09-01T06:44:24;5.05;;;1.70;;
68273;SDS011;55104;47.356;19.448;2022-09-01T06:47:35;4.80;;;1.60;;
68273;SDS011;55104;47.356;19.448;2022-09-01T06:50:37;5.80;;;1.60;;
68273;SDS011;55104;47.356;19.448;2022-09-01T06:54:00;5.43;;;1.40;;
68273;SDS011;55104;47.356;19.448;2022-09-01T06:57:05;3.28;;;1.05;;
68273;SDS011;55104;47.356;19.448;2022-09-01T07:00:28;3.80;;;1.23;;
68273;SDS011;55104;47.356;19.448;2022-09-01T07:03:30;4.27;;;1.10;;
68273;SDS011;55104;47.356;19.448;2022-09-01T07:06:50;3.70;;;1.20;;
68273;SDS011;55104;47.356;19.448;2022-09-01T07:10:30;3.97;;;1.08;;
68273;SDS011;55104;47.356;19.448;2022-09-01T07:13:47;4.13;;;1.40;;
68273;SDS011;55104;47.356;19.448;2022-09-01T07:17:09;4.47;;;1.20;;
68273;SDS011;55104;47.356;19.448;2022-09-01T07:20:26;3.70;;;0.93;;
68273;SDS011;55104;47.356;19.448;2022-09-01T07:23:31;4.10;;;1.15;;
68273;SDS011;55104;47.356;19.448;2022-09-01T07:26:48;4.60;;;0.90;;
68273;SDS011;55104;47.356;19.448;2022-09-01T07:29:51;4.50;;;1.27;;
68273;SDS011;55104;47.356;19.448;2022-09-01T07:37:07;3.43;;;1.00;;
68273;SDS011;55104;47.356;19.448;2022-09-01T07:40:29;5.82;;;1.10;;
68273;SDS011;55104;47.356;19.448;2022-09-01T07:44:30;4.95;;;1.15;;
68273;SDS011;55104;47.356;19.448;2022-09-01T07:47:50;5.50;;;1.30;;
68273;SDS011;55104;47.356;19.448;2022-09-01T07:50:54;3.40;;;1.00;;
68273;SDS011;55104;47.356;19.448;2022-09-01T07:54:18;3.33;;;1.03;;
68273;SDS011;55104;47.356;19.448;2022-09-01T07:57:22;5.43;;;1.10;;
68273;SDS011;55104;47.356;19.448;2022-09-01T08:00:25;4.65;;;0.98;;
68273;SDS011;55104;47.356;19.448;2022-09-01T08:03:36;5.68;;;1.20;;
68273;SDS011;55104;47.356;19.448;2022-09-01T08:06:40;3.78;;;1.38;;
68273;SDS011;55104;47.356;19.448;2022-09-01T08:09:43;3.70;;;1.03;;
68273;SDS011;55104;47.356;19.448;2022-09-01T08:12:47;5.15;;;1.25;;
68273;SDS011;55104;47.356;19.448;2022-09-01T08:15:57;4.97;;;1.48;;
68273;SDS011;55104;47.356;19.448;2022-09-01T08:19:09;3.78;;;1.00;;
68273;SDS011;55104;47.356;19.448;2022-09-01T08:22:37;3.50;;;0.93;;
68273;SDS011;55104;47.356;19.448;2022-09-01T08:25:49;3.30;;;1.00;;
68273;SDS011;55104;47.356;19.448;2022-09-01T08:28:53;3.30;;;0.90;;
68273;SDS011;55104;47.356;19.448;2022-09-01T08:32:03;3.88;;;1.00;;
68273;SDS011;55104;47.356;19.448;2022-09-01T08:35:06;3.10;;;0.70;;
68273;SDS011;55104;47.356;19.448;2022-09-01T08:38:09;2.88;;;0.90;;
68273;SDS011;55104;47.356;19.448;2022-09-01T08:41:13;6.03;;;1.30;;
68273;SDS011;55104;47.356;19.448;2022-09-01T08:47:58;4.78;;;1.20;;
68273;SDS011;55104;47.356;19.448;2022-09-01T08:51:36;3.75;;;0.95;;
68273;SDS011;55104;47.356;19.448;2022-09-01T08:54:43;6.00;;;1.10;;
68273;SDS011;55104;47.356;19.448;2022-09-01T08:57:50;4.93;;;1.10;;
68273;SDS011;55104;47.356;19.448;2022-09-01T09:01:02;3.45;;;1.00;;
68273;SDS011;55104;47.356;19.448;2022-09-01T09:10:41;2.65;;;0.70;;
68273;SDS011;55104;47.356;19.448;2022-09-01T09:16:54;3.60;;;0.95;;
68273;SDS011;55104;47.356;19.448;2022-09-01T09:19:57;4.50;;;1.10;;
68273;SDS011;55104;47.356;19.448;2022-09-01T09:23:04;3.75;;;0.90;;
68273;SDS011;55104;47.356;19.448;2022-09-01T09:26:19;3.00;;;0.90;;
68273;SDS011;55104;47.356;19.448;2022-09-01T09:29:23;2.87;;;0.87;;
68273;SDS011;55104;47.356;19.448;2022-09-01T09:36:15;5.25;;;1.30;;
68273;SDS011;55104;47.356;19.448;2022-09-01T09:39:26;3.33;;;0.93;;
68273;SDS011;55104;47.356;19.448;2022-09-01T09:42:30;4.22;;;1.00;;
68273;SDS011;55104;47.356;19.448;2022-09-01T09:45:37;4.13;;;1.10;;
68273;SDS011;55104;47.356;19.448;2022-09-01T09:48:43;3.17;;;1.00;;
68273;SDS011;55104;47.356;19.448;2022-09-01T09:51:49;3.55;;;1.10;;
68273;SDS011;55104;47.356;19.448;2022-09-01T09:55:04;4.93;;;1.05;;
68273;SDS011;55104;47.356;19.448;2022-09-01T09:58:37;4.47;;;1.23;;
68273;SDS011;55104;47.356;19.448;2022-09-01T10:01:41;4.17;;;1.10;;
68273;SDS011;55104;47.356;19.448;2022-09-01T10:04:43;4.22;;;1.05;;
68273;SDS011;55104;47.356;19.448;2022-09-01T10:07:45;4.90;;;1.10;;
68273;SDS011;55104;47.356;19.448;2022-09-01T10:10:49;5.88;;;1.23;;
68273;SDS011;55104;47.356;19.448;2022-09-01T10:14:00;4.90;;;1.02;;
68273;SDS011;55104;47.356;19.448;2022-09-01T10:17:13;3.00;;;0.83;;
68273;SDS011;55104;47.356;19.448;2022-09-01T10:20:19;3.20;;;0.70;;
68273;SDS011;55104;47.356;19.448;2022-09-01T10:23:23;3.42;;;0.90;;
68273;SDS011;55104;47.356;19.448;2022-09-01T10:26:34;3.83;;;0.88;;
68273;SDS011;55104;47.356;19.448;2022-09-01T10:29:42;3.63;;;0.95;;
68273;SDS011;55104;47.356;19.448;2022-09-01T10:32:49;5.40;;;0.90;;
68273;SDS011;55104;47.356;19.448;2022-09-01T10:35:57;3.63;;;0.80;;
68273;SDS011;55104;47.356;19.448;2022-09-01T10:39:00;5.30;;;0.90;;
68273;SDS011;55104;47.356;19.448;2022-09-01T10:42:15;4.97;;;0.80;;
68273;SDS011;55104;47.356;19.448;2022-09-01T10:45:33;3.70;;;0.90;;
68273;SDS011;55104;47.356;19.448;2022-09-01T10:48:39;3.73;;;0.83;;
68273;SDS011;55104;47.356;19.448;2022-09-01T10:51:56;3.53;;;0.80;;
68273;SDS011;55104;47.356;19.448;2022-09-01T10:55:24;3.28;;;0.70;;
68273;SDS011;55104;47.356;19.448;2022-09-01T10:58:43;4.30;;;1.00;;
68273;SDS011;55104;47.356;19.448;2022-09-01T11:02:20;3.47;;;0.85;;
68273;SDS011;55104;47.356;19.448;2022-09-01T11:05:27;2.07;;;0.70;;
68273;SDS011;55104;47.356;19.448;2022-09-01T11:09:23;4.18;;;0.90;;
68273;SDS011;55104;47.356;19.448;2022-09-01T11:15:46;3.97;;;0.70;;
68273;SDS011;55104;47.356;19.448;2022-09-01T11:18:50;4.20;;;0.73;;
68273;SDS011;55104;47.356;19.448;2022-09-01T11:22:12;2.97;;;0.80;;
68273;SDS011;55104;47.356;19.448;2022-09-01T11:25:30;3.35;;;0.75;;
68273;SDS011;55104;47.356;19.448;2022-09-01T11:28:40;3.13;;;0.82;;
68273;SDS011;55104;47.356;19.448;2022-09-01T11:31:43;4.80;;;1.20;;
68273;SDS011;55104;47.356;19.448;2022-09-01T11:34:45;4.05;;;0.90;;
68273;SDS011;55104;47.356;19.448;2022-09-01T11:37:50;3.27;;;0.80;;
68273;SDS011;55104;47.356;19.448;2022-09-01T11:40:57;5.10;;;0.90;;
68273;SDS011;55104;47.356;19.448;2022-09-01T11:44:01;4.28;;;1.00;;
68273;SDS011;55104;47.356;19.448;2022-09-01T11:47:14;2.67;;;0.70;;
68273;SDS011;55104;47.356;19.448;2022-09-01T11:50:32;3.03;;;0.85;;
68273;SDS011;55104;47.356;19.448;2022-09-01T11:53:36;2.67;;;0.80;;
68273;SDS011;55104;47.356;19.448;2022-09-01T11:56:38;3.00;;;0.88;;
68273;SDS011;55104;47.356;19.448;2022-09-01T11:59:40;4.28;;;1.05;;
68273;SDS011;55104;47.356;19.448;2022-09-01T12:02:47;4.80;;;2.00;;
68273;SDS011;55104;47.356;19.448;2022-09-01T12:05:53;4.80;;;1.00;;
68273;SDS011;55104;47.356;19.448;2022-09-01T12:09:03;4.17;;;0.87;;
68273;SDS011;55104;47.356;19.448;2022-09-01T12:12:06;3.42;;;0.80;;
68273;SDS011;55104;47.356;19.448;2022-09-01T12:15:27;6.72;;;0.98;;
68273;SDS011;55104;47.356;19.448;2022-09-01T12:18:45;2.47;;;0.70;;
68273;SDS011;55104;47.356;19.448;2022-09-01T12:21:55;4.68;;;0.90;;
68273;SDS011;55104;47.356;19.448;2022-09-01T12:25:16;2.90;;;0.70;;
68273;SDS011;55104;47.356;19.448;2022-09-01T12:28:22;2.95;;;0.70;;
68273;SDS011;55104;47.356;19.448;2022-09-01T12:31:25;3.55;;;0.65;;
68273;SDS011;55104;47.356;19.448;2022-09-01T12:34:35;2.88;;;0.70;;
68273;SDS011;55104;47.356;19.448;2022-09-01T12:37:42;3.05;;;0.73;;
68273;SDS011;55104;47.356;19.448;2022-09-01T12:40:45;6.10;;;0.70;;
68273;SDS011;55104;47.356;19.448;2022-09-01T12:43:50;3.83;;;0.80;;
68273;SDS011;55104;47.356;19.448;2022-09-01T12:46:55;3.92;;;0.80;;
68273;SDS011;55104;47.356;19.448;2022-09-01T12:50:01;3.40;;;0.70;;
68273;SDS011;55104;47.356;19.448;2022-09-01T12:53:13;2.70;;;0.80;;
68273;SDS011;55104;47.356;19.448;2022-09-01T12:56:34;3.10;;;0.60;;
68273;SDS011;55104;47.356;19.448;2022-09-01T12:59:39;3.50;;;0.70;;
68273;SDS011;55104;47.356;19.448;2022-09-01T13:02:43;3.67;;;1.08;;
68273;SDS011;55104;47.356;19.448;2022-09-01T13:05:51;2.75;;;0.50;;
68273;SDS011;55104;47.356;19.448;2022-09-01T13:08:54;1.67;;;0.52;;
68273;SDS011;55104;47.356;19.448;2022-09-01T13:12:16;2.73;;;0.70;;
68273;SDS011;55104;47.356;19.448;2022-09-01T13:15:20;4.03;;;0.90;;
68273;SDS011;55104;47.356;19.448;2022-09-01T13:18:23;4.15;;;0.80;;
68273;SDS011;55104;47.356;19.448;2022-09-01T13:21:29;3.03;;;0.80;;
68273;SDS011;55104;47.356;19.448;2022-09-01T13:24:32;2.88;;;0.65;;
68273;SDS011;55104;47.356;19.448;2022-09-01T13:27:35;2.37;;;0.70;;
68273;SDS011;55104;47.356;19.448;2022-09-01T13:30:38;2.33;;;0.70;;
68273;SDS011;55104;47.356;19.448;2022-09-01T13:33:40;2.63;;;0.60;;
68273;SDS011;55104;47.356;19.448;2022-09-01T13:37:03;2.97;;;0.70;;
68273;SDS011;55104;47.356;19.448;2022-09-01T13:40:05;4.10;;;1.00;;
68273;SDS011;55104;47.356;19.448;2022-09-01T13:43:09;5.17;;;0.80;;
68273;SDS011;55104;47.356;19.448;2022-09-01T13:46:12;3.03;;;0.82;;
68273;SDS011;55104;47.356;19.448;2022-09-01T13:49:14;2.97;;;0.77;;
68273;SDS011;55104;47.356;19.448;2022-09-01T13:52:37;3.97;;;0.73;;
68273;SDS011;55104;47.356;19.448;2022-09-01T13:55:55;2.17;;;0.73;;
68273;SDS011;55104;47.356;19.448;2022-09-01T13:59:03;2.30;;;0.60;;
68273;SDS011;55104;47.356;19.448;2022-09-01T14:02:05;2.78;;;0.75;;
68273;SDS011;55104;47.356;19.448;2022-09-01T14:05:07;2.75;;;0.70;;
68273;SDS011;55104;47.356;19.448;2022-09-01T14:08:10;2.33;;;0.70;;
68273;SDS011;55104;47.356;19.448;2022-09-01T14:11:17;2.95;;;1.08;;
68273;SDS011;55104;47.356;19.448;2022-09-01T14:14:20;2.63;;;0.60;;
68273;SDS011;55104;47.356;19.448;2022-09-01T14:17:23;3.45;;;0.75;;
68273;SDS011;55104;47.356;19.448;2022-09-01T14:20:26;2.28;;;0.77;;
68273;SDS011;55104;47.356;19.448;2022-09-01T14:23:37;2.38;;;0.60;;
68273;SDS011;55104;47.356;19.448;2022-09-01T14:26:40;2.75;;;0.90;;
68273;SDS011;55104;47.356;19.448;2022-09-01T14:29:49;2.60;;;0.73;;
68273;SDS011;55104;47.356;19.448;2022-09-01T14:32:55;2.33;;;0.60;;
68273;SDS011;55104;47.356;19.448;2022-09-01T14:35:59;3.35;;;0.80;;
68273;SDS011;55104;47.356;19.448;2022-09-01T14:39:02;2.55;;;0.73;;
68273;SDS011;55104;47.356;19.448;2022-09-01T14:42:04;2.22;;;0.60;;
68273;SDS011;55104;47.356;19.448;2022-09-01T14:45:12;3.43;;;0.80;;
68273;SDS011;55104;47.356;19.448;2022-09-01T14:48:17;3.33;;;0.60;;
68273;SDS011;55104;47.356;19.448;2022-09-01T14:51:25;4.28;;;0.80;;
68273;SDS011;55104;47.356;19.448;2022-09-01T14:54:50;2.33;;;0.80;;
68273;SDS011;55104;47.356;19.448;2022-09-01T14:57:52;4.30;;;1.00;;
68273;SDS011;55104;47.356;19.448;2022-09-01T15:00:55;3.87;;;0.90;;
68273;SDS011;55104;47.356;19.448;2022-09-01T15:04:08;2.28;;;0.65;;
68273;SDS011;55104;47.356;19.448;2022-09-01T15:07:10;4.90;;;0.80;;
68273;SDS011;55104;47.356;19.448;2022-09-01T15:10:14;4.38;;;0.65;;
68273;SDS011;55104;47.356;19.448;2022-09-01T15:13:25;2.53;;;0.70;;
68273;SDS011;55104;47.356;19.448;2022-09-01T15:16:28;3.07;;;0.67;;
68273;SDS011;55104;47.356;19.448;2022-09-01T15:19:30;2.15;;;0.50;;
68273;SDS011;55104;47.356;19.448;2022-09-01T15:22:32;4.28;;;0.73;;
68273;SDS011;55104;47.356;19.448;2022-09-01T15:25:34;3.15;;;0.80;;
68273;SDS011;55104;47.356;19.448;2022-09-01T15:28:36;2.88;;;0.70;;
68273;SDS011;55104;47.356;19.448;2022-09-01T15:31:38;3.50;;;0.73;;
68273;SDS011;55104;47.356;19.448;2022-09-01T15:34:41;2.80;;;0.75;;
68273;SDS011;55104;47.356;19.448;2022-09-01T15:37:49;3.05;;;0.90;;
68273;SDS011;55104;47.356;19.448;2022-09-01T15:40:52;2.60;;;0.70;;
68273;SDS011;55104;47.356;19.448;2022-09-01T15:44:00;3.58;;;0.68;;
68273;SDS011;55104;47.356;19.448;2022-09-01T15:47:04;2.77;;;0.67;;
68273;SDS011;55104;47.356;19.448;2022-09-01T15:50:07;2.40;;;0.60;;
68273;SDS011;55104;47.356;19.448;2022-09-01T15:53:21;3.25;;;0.82;;
68273;SDS011;55104;47.356;19.448;2022-09-01T15:56:24;3.35;;;0.93;;
68273;SDS011;55104;47.356;19.448;2022-09-01T15:59:27;3.22;;;0.90;;
68273;SDS011;55104;47.356;19.448;2022-09-01T16:02:29;3.23;;;0.70;;
68273;SDS011;55104;47.356;19.448;2022-09-01T16:05:33;2.85;;;0.75;;
68273;SDS011;55104;47.356;19.448;2022-09-01T16:08:36;2.92;;;0.80;;
68273;SDS011;55104;47.356;19.448;2022-09-01T16:11:38;3.53;;;0.73;;
68273;SDS011;55104;47.356;19.448;2022-09-01T16:14:41;3.80;;;0.85;;
68273;SDS011;55104;47.356;19.448;2022-09-01T16:17:48;2.63;;;0.60;;
68273;SDS011;55104;47.356;19.448;2022-09-01T16:21:13;3.15;;;0.80;;
68273;SDS011;55104;47.356;19.448;2022-09-01T16:24:29;3.65;;;0.88;;
68273;SDS011;55104;47.356;19.448;2022-09-01T16:27:40;4.70;;;1.00;;
68273;SDS011;55104;47.356;19.448;2022-09-01T16:30:44;3.03;;;0.63;;
68273;SDS011;55104;47.356;19.448;2022-09-01T16:33:49;2.33;;;0.50;;
68273;SDS011;55104;47.356;19.448;2022-09-01T16:43:46;2.90;;;0.60;;
68273;SDS011;55104;47.356;19.448;2022-09-01T16:50:43;2.00;;;0.70;;
68273;SDS011;55104;47.356;19.448;2022-09-01T17:00:46;2.47;;;0.70;;
68273;SDS011;55104;47.356;19.448;2022-09-01T17:10:32;3.17;;;0.60;;
68273;SDS011;55104;47.356;19.448;2022-09-01T17:13:55;2.05;;;0.70;;
68273;SDS011;55104;47.356;19.448;2022-09-01T17:17:01;4.65;;;0.85;;
68273;SDS011;55104;47.356;19.448;2022-09-01T17:20:09;2.90;;;0.70;;
68273;SDS011;55104;47.356;19.448;2022-09-01T17:23:14;3.13;;;0.60;;
68273;SDS011;55104;47.356;19.448;2022-09-01T17:26:30;4.03;;;0.90;;
68273;SDS011;55104;47.356;19.448;2022-09-01T17:29:40;2.92;;;0.80;;
68273;SDS011;55104;47.356;19.448;2022-09-01T17:46:06;4.25;;;0.98;;
68273;SDS011;55104;47.356;19.448;2022-09-01T17:49:20;4.53;;;1.02;;
68273;SDS011;55104;47.356;19.448;2022-09-01T17:56:05;6.90;;;1.30;;
68273;SDS011;55104;47.356;19.448;2022-09-01T18:06:27;11.00;;;4.40;;
68273;SDS011;55104;47.356;19.448;2022-09-01T18:09:39;11.38;;;5.35;;
68273;SDS011;55104;47.356;19.448;2022-09-01T18:12:44;12.33;;;4.93;;
68273;SDS011;55104;47.356;19.448;2022-09-01T18:15:52;9.17;;;3.83;;
68273;SDS011;55104;47.356;19.448;2022-09-01T18:19:06;8.65;;;3.97;;
68273;SDS011;55104;47.356;19.448;2022-09-01T18:22:15;10.65;;;4.82;;
68273;SDS011;55104;47.356;19.448;2022-09-01T18:25:22;10.63;;;4.70;;
68273;SDS011;55104;47.356;19.448;2022-09-01T18:28:26;11.37;;;4.80;;
68273;SDS011;55104;47.356;19.448;2022-09-01T18:38:05;10.95;;;4.63;;
68273;SDS011;55104;47.356;19.448;2022-09-01T18:51:21;10.80;;;5.05;;
68273;SDS011;55104;47.356;19.448;2022-09-01T18:54:47;12.95;;;5.88;;
68273;SDS011;55104;47.356;19.448;2022-09-01T18:58:10;12.23;;;5.40;;
68273;SDS011;55104;47.356;19.448;2022-09-01T19:01:34;9.23;;;3.43;;
68273;SDS011;55104;47.356;19.448;2022-09-01T19:04:40;6.93;;;2.50;;
68273;SDS011;55104;47.356;19.448;2022-09-01T19:07:55;4.20;;;1.08;;
68273;SDS011;55104;47.356;19.448;2022-09-01T19:11:33;3.13;;;0.80;;
68273;SDS011;55104;47.356;19.448;2022-09-01T19:18:26;2.77;;;0.87;;
68273;SDS011;55104;47.356;19.448;2022-09-01T19:21:31;3.10;;;0.93;;
68273;SDS011;55104;47.356;19.448;2022-09-01T19:24:41;2.75;;;0.75;;
68273;SDS011;55104;47.356;19.448;2022-09-01T19:27:49;3.97;;;1.00;;
68273;SDS011;55104;47.356;19.448;2022-09-01T19:34:14;3.97;;;0.90;;
68273;SDS011;55104;47.356;19.448;2022-09-01T19:37:26;3.43;;;0.87;;
68273;SDS011;55104;47.356;19.448;2022-09-01T19:40:31;4.25;;;1.00;;
68273;SDS011;55104;47.356;19.448;2022-09-01T19:43:36;3.78;;;0.82;;
68273;SDS011;55104;47.356;19.448;2022-09-01T19:46:51;3.70;;;0.90;;
68273;SDS011;55104;47.356;19.448;2022-09-01T19:50:15;3.93;;;0.70;;
68273;SDS011;55104;47.356;19.448;2022-09-01T19:57:04;4.13;;;0.70;;
68273;SDS011;55104;47.356;19.448;2022-09-01T20:03:53;3.13;;;0.70;;
68273;SDS011;55104;47.356;19.448;2022-09-01T20:07:00;3.53;;;0.90;;
68273;SDS011;55104;47.356;19.448;2022-09-01T20:16:51;4.03;;;0.55;;
68273;SDS011;55104;47.356;19.448;2022-09-01T20:36:44;3.33;;;0.70;;
68273;SDS011;55104;47.356;19.448;2022-09-01T20:39:52;2.57;;;0.60;;
68273;SDS011;55104;47.356;19.448;2022-09-01T20:43:26;2.17;;;0.63;;